createdAt,value
2022-12-05T00:02:01.876Z,19.60
2022-12-05T00:04:29.919Z,19.50
2022-12-05T00:06:57.875Z,19.50
2022-12-05T00:09:25.966Z,19.60
2022-12-05T00:11:55.115Z,19.60
2022-12-05T00:14:22.927Z,19.50
2022-12-05T00:16:50.727Z,19.50
2022-12-05T00:19:18.598Z,19.50
2022-12-05T00:21:47.081Z,19.50
2022-12-05T00:24:17.089Z,19.50
2022-12-05T00:26:45.316Z,19.50
2022-12-05T00:29:14.528Z,19.50
2022-12-05T00:31:42.712Z,19.40
2022-12-05T00:34:11.276Z,19.40
2022-12-05T00:36:39.271Z,19.40
2022-12-05T00:39:09.087Z,19.40
2022-12-05T00:41:37.303Z,19.40
2022-12-05T00:44:06.529Z,19.40
2022-12-05T00:46:36.409Z,19.40
2022-12-05T00:49:06.092Z,19.40
2022-12-05T00:51:35.910Z,19.40
2022-12-05T00:54:07.333Z,19.40
2022-12-05T00:56:35.500Z,19.40
2022-12-05T00:59:04.280Z,19.40
2022-12-05T01:01:33.895Z,19.30
2022-12-05T01:04:06.268Z,19.40
2022-12-05T01:06:34.570Z,19.30
2022-12-05T01:09:02.386Z,19.30
2022-12-05T01:11:30.714Z,19.30
2022-12-05T01:13:59.322Z,19.30
2022-12-05T01:16:30.000Z,19.30
2022-12-05T01:18:59.194Z,19.30
2022-12-05T01:21:29.019Z,19.30
2022-12-05T01:23:57.435Z,19.30
2022-12-05T01:26:25.734Z,19.30
2022-12-05T01:28:54.002Z,19.30
2022-12-05T01:31:25.293Z,19.30
2022-12-05T01:33:55.462Z,19.30
2022-12-05T01:36:23.821Z,19.30
2022-12-05T01:38:53.576Z,19.30
2022-12-05T01:41:24.354Z,19.30
2022-12-05T01:44:01.561Z,19.30
2022-12-05T01:46:31.342Z,19.30
2022-12-05T01:49:04.132Z,19.20
2022-12-05T01:51:33.723Z,19.20
2022-12-05T01:54:03.509Z,19.20
2022-12-05T01:56:33.523Z,19.20
2022-12-05T01:59:02.538Z,19.20
2022-12-05T02:01:30.467Z,19.20
2022-12-05T02:03:59.392Z,19.20
2022-12-05T02:06:28.733Z,19.20
2022-12-05T02:08:56.594Z,19.20
2022-12-05T02:11:29.458Z,19.20
2022-12-05T02:14:10.596Z,19.20
2022-12-05T02:16:48.817Z,19.20
2022-12-05T02:19:49.331Z,19.20
2022-12-05T02:22:54.387Z,19.20
2022-12-05T02:25:44.967Z,19.10
2022-12-05T02:28:40.926Z,19.20
2022-12-05T02:31:14.836Z,19.20
2022-12-05T02:33:47.918Z,19.10
2022-12-05T02:36:23.044Z,19.10
2022-12-05T02:38:59.638Z,19.10
2022-12-05T02:41:33.813Z,19.10
2022-12-05T02:44:06.579Z,19.10
2022-12-05T02:46:39.076Z,19.20
2022-12-05T02:49:10.448Z,19.10
2022-12-05T02:51:43.240Z,19.10
2022-12-05T02:54:15.043Z,19.10
2022-12-05T02:56:45.397Z,19.10
2022-12-05T02:59:16.068Z,19.10
2022-12-05T03:01:49.639Z,19.10
2022-12-05T03:04:19.950Z,19.10
2022-12-05T03:06:51.970Z,19.10
2022-12-05T03:09:24.587Z,19.10
2022-12-05T03:11:56.944Z,19.10
2022-12-05T03:14:29.730Z,19.10
2022-12-05T03:17:02.491Z,19.10
2022-12-05T03:19:38.020Z,19.10
2022-12-05T03:22:10.778Z,19.10
2022-12-05T03:24:41.702Z,19.10
2022-12-05T03:27:17.934Z,19.10
2022-12-05T03:29:52.711Z,19.00
2022-12-05T03:32:25.574Z,19.00
2022-12-05T03:35:04.520Z,19.00
2022-12-05T03:37:42.809Z,19.00
2022-12-05T03:40:19.634Z,19.10
2022-12-05T03:42:54.963Z,19.00
2022-12-05T03:45:30.560Z,19.00
2022-12-05T03:48:08.576Z,19.00
2022-12-05T03:50:40.913Z,19.00
2022-12-05T03:53:21.309Z,19.00
2022-12-05T03:56:00.426Z,19.00
2022-12-05T03:58:34.021Z,19.00
2022-12-05T04:01:06.466Z,19.00
2022-12-05T04:03:41.565Z,19.00
2022-12-05T04:06:16.326Z,19.00
2022-12-05T04:08:49.036Z,19.00
2022-12-05T04:11:21.450Z,19.00
2022-12-05T04:13:53.096Z,19.00
2022-12-05T04:16:42.152Z,19.00
2022-12-05T04:19:18.503Z,19.00
2022-12-05T04:21:50.331Z,19.00
2022-12-05T04:24:39.543Z,19.00
2022-12-05T04:27:21.396Z,19.00
2022-12-05T04:29:57.664Z,19.00
2022-12-05T04:32:30.772Z,19.00
2022-12-05T04:35:07.615Z,18.90
2022-12-05T04:37:40.810Z,18.90
2022-12-05T04:40:13.410Z,18.90
2022-12-05T04:42:43.781Z,18.90
2022-12-05T04:45:14.266Z,19.00
2022-12-05T04:47:45.844Z,18.90
2022-12-05T04:50:16.854Z,18.90
2022-12-05T04:52:47.146Z,18.90
2022-12-05T04:55:20.051Z,19.00
2022-12-05T04:57:53.797Z,18.90
2022-12-05T05:00:21.885Z,18.90
2022-12-05T05:02:55.563Z,18.90
2022-12-05T05:05:24.855Z,18.90
2022-12-05T05:07:55.211Z,18.90
2022-12-05T05:10:28.167Z,18.90
2022-12-05T05:12:56.183Z,18.90
2022-12-05T05:15:24.354Z,18.90
2022-12-05T05:17:52.202Z,18.90
2022-12-05T05:20:27.031Z,18.90
2022-12-05T05:22:57.314Z,18.90
2022-12-05T05:25:26.285Z,18.90
2022-12-05T05:27:55.754Z,18.90
2022-12-05T05:30:25.233Z,18.90
2022-12-05T05:32:53.680Z,18.90
2022-12-05T05:35:21.696Z,18.90
2022-12-05T05:37:49.500Z,18.90
2022-12-05T05:40:18.938Z,18.90
2022-12-05T05:42:48.366Z,18.90
2022-12-05T05:45:16.988Z,18.90
2022-12-05T05:47:45.218Z,19.00
2022-12-05T05:50:19.524Z,19.00
2022-12-05T05:52:49.138Z,19.00
2022-12-05T05:55:18.729Z,19.10
2022-12-05T05:57:46.561Z,19.10
2022-12-05T06:00:15.770Z,19.10
2022-12-05T06:02:43.689Z,19.10
2022-12-05T06:05:11.725Z,19.10
2022-12-05T06:07:39.593Z,19.10
2022-12-05T06:10:08.755Z,19.20
2022-12-05T06:12:37.920Z,19.20
2022-12-05T06:15:06.899Z,19.20
2022-12-05T06:17:34.682Z,19.30
2022-12-05T06:20:02.689Z,19.30
2022-12-05T06:22:30.832Z,19.30
2022-12-05T06:24:59.028Z,19.30
2022-12-05T06:27:27.004Z,19.30
2022-12-05T06:29:56.469Z,19.30
2022-12-05T06:32:24.517Z,19.30
2022-12-05T06:34:52.370Z,19.30
2022-12-05T06:37:20.171Z,19.30
2022-12-05T06:39:47.997Z,19.30
2022-12-05T06:42:16.116Z,19.30
2022-12-05T06:44:43.916Z,19.30
2022-12-05T06:47:13.081Z,19.30
2022-12-05T06:49:41.058Z,19.30
2022-12-05T06:52:08.883Z,19.20
2022-12-05T06:54:37.134Z,19.20
2022-12-05T06:57:05.049Z,19.20
2022-12-05T06:59:32.842Z,19.20
2022-12-05T07:02:00.541Z,19.20
2022-12-05T07:04:29.826Z,19.20
2022-12-05T07:06:58.444Z,19.20
2022-12-05T07:09:45.739Z,19.20
2022-12-05T07:12:14.830Z,19.20
2022-12-05T07:14:48.054Z,19.20
2022-12-05T07:17:16.375Z,19.20
2022-12-05T07:19:45.626Z,19.20
2022-12-05T07:22:15.923Z,19.20
2022-12-05T07:24:44.624Z,19.20
2022-12-05T07:27:12.721Z,19.10
2022-12-05T07:29:40.536Z,19.00
2022-12-05T07:32:08.732Z,19.00
2022-12-05T07:34:38.587Z,19.00
2022-12-05T07:37:08.057Z,19.00
2022-12-05T07:39:35.898Z,19.00
2022-12-05T07:42:03.714Z,19.00
2022-12-05T07:44:32.245Z,19.00
2022-12-05T07:47:00.498Z,19.00
2022-12-05T07:49:28.518Z,19.00
2022-12-05T07:51:56.337Z,19.00
2022-12-05T07:54:25.520Z,19.00
2022-12-05T07:56:53.316Z,19.00
2022-12-05T07:59:21.340Z,19.00
2022-12-05T08:01:49.220Z,19.00
2022-12-05T08:04:17.063Z,19.00
2022-12-05T08:06:44.981Z,19.00
2022-12-05T08:09:12.841Z,19.00
2022-12-05T08:11:42.228Z,18.90
2022-12-05T08:14:10.124Z,19.00
2022-12-05T08:16:38.109Z,19.00
2022-12-05T08:19:07.577Z,18.90
2022-12-05T08:21:36.279Z,18.90
2022-12-05T08:24:06.372Z,18.90
2022-12-05T08:26:35.275Z,18.90
2022-12-05T08:29:06.993Z,18.90
2022-12-05T08:31:37.064Z,18.90
2022-12-05T08:34:04.870Z,18.90
2022-12-05T08:36:32.920Z,19.00
2022-12-05T08:39:02.322Z,18.90
2022-12-05T08:41:30.990Z,18.90
2022-12-05T08:44:01.350Z,18.90
2022-12-05T08:46:30.672Z,18.90
2022-12-05T08:48:58.555Z,18.90
2022-12-05T08:51:26.573Z,19.00
2022-12-05T08:53:56.195Z,19.00
2022-12-05T08:56:27.123Z,19.00
2022-12-05T08:59:01.217Z,18.90
2022-12-05T09:01:38.241Z,18.90
2022-12-05T09:04:06.978Z,18.90
2022-12-05T09:06:35.947Z,19.00
2022-12-05T09:09:05.915Z,18.90
2022-12-05T09:11:35.624Z,18.90
2022-12-05T09:14:05.078Z,19.00
2022-12-05T09:16:38.540Z,19.00
2022-12-05T09:19:07.933Z,19.00
2022-12-05T09:21:35.739Z,19.00
2022-12-05T09:24:03.584Z,19.00
2022-12-05T09:26:31.594Z,19.00
2022-12-05T09:28:59.553Z,19.00
2022-12-05T09:31:28.239Z,19.00
2022-12-05T09:33:57.568Z,19.10
2022-12-05T09:36:27.818Z,19.00
2022-12-05T09:38:57.125Z,19.00
2022-12-05T09:41:56.906Z,19.00
2022-12-05T09:44:33.633Z,19.00
2022-12-05T09:47:05.130Z,19.00
2022-12-05T09:49:39.164Z,19.10
2022-12-05T09:52:07.129Z,19.00
2022-12-05T09:54:35.078Z,19.10
2022-12-05T09:57:05.832Z,19.10
2022-12-05T09:59:33.737Z,19.10
2022-12-05T10:02:12.867Z,19.10
2022-12-05T10:05:00.592Z,19.20
2022-12-05T10:07:33.826Z,19.20
2022-12-05T10:10:20.969Z,19.20
2022-12-05T10:13:00.272Z,19.20
2022-12-05T10:15:33.796Z,19.20
2022-12-05T10:18:05.878Z,19.20
2022-12-05T10:20:48.475Z,19.20
2022-12-05T10:23:48.937Z,19.20
2022-12-05T10:26:15.468Z,19.20
2022-12-05T10:28:52.179Z,19.20
2022-12-05T10:31:25.186Z,19.20
2022-12-05T10:33:59.709Z,19.20
2022-12-05T10:36:28.858Z,19.20
2022-12-05T10:38:57.774Z,19.20
2022-12-05T10:41:25.899Z,19.20
2022-12-05T10:43:54.150Z,19.20
2022-12-05T10:46:21.992Z,19.20
2022-12-05T10:48:49.896Z,19.20
2022-12-05T10:51:21.586Z,19.20
2022-12-05T10:53:52.646Z,19.20
2022-12-05T10:56:43.923Z,19.20
2022-12-05T10:59:13.769Z,18.90
2022-12-05T11:01:47.897Z,16.40
2022-12-05T11:04:28.264Z,16.30
2022-12-05T11:06:59.408Z,16.80
2022-12-05T11:09:31.015Z,17.10
2022-12-05T11:12:04.121Z,17.50
2022-12-05T11:14:33.392Z,17.70
2022-12-05T11:17:03.469Z,18.00
2022-12-05T11:19:33.178Z,18.30
2022-12-05T11:22:01.486Z,18.40
2022-12-05T11:24:32.961Z,18.60
2022-12-05T11:27:20.628Z,18.70
2022-12-05T11:29:57.573Z,18.90
2022-12-05T11:32:27.028Z,19.00
2022-12-05T11:35:02.050Z,19.10
2022-12-05T11:37:36.219Z,19.20
2022-12-05T11:40:15.470Z,19.30
2022-12-05T11:42:57.038Z,19.40
2022-12-05T11:45:40.707Z,19.50
2022-12-05T11:48:35.626Z,19.50
2022-12-05T11:51:27.138Z,19.60
2022-12-05T11:54:42.052Z,19.60
2022-12-05T11:57:24.083Z,19.60
2022-12-05T12:00:19.244Z,19.50
2022-12-05T12:03:29.803Z,17.50
2022-12-05T12:06:13.381Z,18.00
2022-12-05T12:08:56.836Z,18.50
2022-12-05T12:11:30.476Z,18.70
2022-12-05T12:14:07.055Z,18.90
2022-12-05T12:16:43.879Z,19.00
2022-12-05T12:19:29.484Z,19.10
2022-12-05T12:22:15.397Z,19.10
2022-12-05T12:24:57.712Z,19.20
2022-12-05T12:27:37.946Z,19.20
2022-12-05T12:30:13.514Z,19.20
2022-12-05T12:32:50.707Z,19.30
2022-12-05T12:35:39.149Z,19.30
2022-12-05T12:38:25.006Z,19.30
2022-12-05T12:40:55.599Z,19.30
2022-12-05T12:43:53.803Z,19.30
2022-12-05T12:46:37.911Z,19.20
2022-12-05T12:49:30.949Z,19.20
2022-12-05T12:52:04.251Z,19.20
2022-12-05T12:55:03.494Z,19.10
2022-12-05T12:57:43.187Z,19.10
2022-12-05T13:00:21.420Z,19.10
2022-12-05T13:02:56.254Z,19.10
2022-12-05T13:05:32.077Z,19.10
2022-12-05T13:08:04.863Z,19.10
2022-12-05T13:10:37.647Z,19.00
2022-12-05T13:13:07.088Z,19.00
2022-12-05T13:15:40.853Z,19.00
2022-12-05T13:18:17.888Z,18.90
2022-12-05T13:20:48.881Z,18.90
2022-12-05T13:23:19.328Z,18.90
2022-12-05T13:25:48.247Z,18.90
2022-12-05T13:28:27.937Z,18.90
2022-12-05T13:31:02.428Z,18.90
2022-12-05T13:33:35.279Z,18.90
2022-12-05T13:36:27.282Z,18.90
2022-12-05T13:39:21.317Z,19.00
2022-12-05T13:42:09.697Z,19.10
2022-12-05T13:44:41.531Z,19.20
2022-12-05T13:47:32.127Z,19.20
2022-12-05T13:50:10.514Z,19.30
2022-12-05T13:52:46.537Z,19.30
2022-12-05T13:55:27.638Z,19.30
2022-12-05T13:57:59.517Z,19.40
2022-12-05T14:00:36.980Z,19.40
2022-12-05T14:03:19.541Z,19.40
2022-12-05T14:05:54.171Z,19.40
2022-12-05T14:08:54.060Z,19.40
2022-12-05T14:11:22.623Z,19.40
2022-12-05T14:13:50.790Z,19.40
2022-12-05T14:16:50.402Z,19.40
2022-12-05T14:19:53.891Z,19.40
2022-12-05T14:22:49.864Z,19.40
2022-12-05T14:25:30.753Z,19.40
2022-12-05T14:28:04.057Z,19.40
2022-12-05T14:30:45.510Z,19.40
2022-12-05T14:33:17.151Z,19.40
2022-12-05T14:35:50.662Z,19.40
2022-12-05T14:38:29.225Z,19.40
2022-12-05T14:41:06.397Z,19.30
2022-12-05T14:43:35.890Z,19.30
2022-12-05T14:46:06.295Z,19.30
2022-12-05T14:48:39.263Z,19.30
2022-12-05T14:51:42.686Z,19.20
2022-12-05T14:54:16.037Z,19.20
2022-12-05T14:56:45.534Z,19.20
2022-12-05T14:59:24.361Z,19.20
2022-12-05T15:01:55.617Z,19.10
2022-12-05T15:04:29.633Z,19.10
2022-12-05T15:07:01.233Z,19.10
2022-12-05T15:09:38.194Z,19.10
2022-12-05T15:12:12.076Z,19.10
2022-12-05T15:14:48.125Z,19.00
2022-12-05T15:17:23.339Z,19.00
2022-12-05T15:19:58.196Z,19.10
2022-12-05T15:22:28.974Z,19.10
2022-12-05T15:24:58.573Z,19.10
2022-12-05T15:27:26.549Z,19.10
2022-12-05T15:29:56.479Z,19.00
2022-12-05T15:32:28.119Z,19.10
2022-12-05T15:35:04.837Z,19.10
2022-12-05T15:37:36.646Z,19.10
2022-12-05T15:40:14.163Z,19.10
2022-12-05T15:42:44.509Z,19.10
2022-12-05T15:45:24.753Z,19.10
2022-12-05T15:47:54.991Z,19.10
2022-12-05T15:50:32.484Z,19.20
2022-12-05T15:53:05.613Z,19.30
2022-12-05T15:55:39.492Z,19.40
2022-12-05T15:58:13.629Z,19.50
2022-12-05T16:00:46.287Z,19.60
2022-12-05T16:03:20.235Z,19.70
2022-12-05T16:05:53.077Z,19.80
2022-12-05T16:08:21.187Z,19.90
2022-12-05T16:10:50.557Z,20.10
2022-12-05T16:13:23.555Z,20.20
2022-12-05T16:15:55.127Z,20.20
2022-12-05T16:18:27.962Z,20.40
2022-12-05T16:20:55.986Z,20.40
2022-12-05T16:23:27.360Z,20.50
2022-12-05T16:26:12.416Z,20.50
2022-12-05T16:28:40.260Z,20.60
2022-12-05T16:31:08.342Z,20.60
2022-12-05T16:33:41.838Z,20.60
2022-12-05T16:36:12.933Z,20.60
2022-12-05T16:38:43.432Z,20.60
2022-12-05T16:41:14.566Z,20.70
2022-12-05T16:43:45.432Z,20.70
2022-12-05T16:46:42.768Z,20.70
2022-12-05T16:49:35.109Z,20.70
2022-12-05T16:52:14.053Z,20.70
2022-12-05T16:54:42.517Z,20.70
2022-12-05T16:57:14.337Z,20.60
2022-12-05T16:59:43.557Z,20.60
2022-12-05T17:02:14.748Z,20.60
2022-12-05T17:04:43.240Z,20.70
2022-12-05T17:07:11.120Z,20.70
2022-12-05T17:09:38.956Z,20.60
2022-12-05T17:12:12.812Z,20.60
2022-12-05T17:14:41.994Z,20.60
2022-12-05T17:17:13.806Z,20.60
2022-12-05T17:19:41.609Z,20.60
2022-12-05T17:22:09.444Z,20.60
2022-12-05T17:24:37.420Z,20.60
2022-12-05T17:27:07.406Z,20.60
2022-12-05T17:29:35.970Z,20.60
2022-12-05T17:32:05.749Z,20.60
2022-12-05T17:34:33.558Z,20.50
2022-12-05T17:37:01.374Z,20.50
2022-12-05T17:39:29.254Z,20.50
2022-12-05T17:41:57.300Z,20.50
2022-12-05T17:44:25.362Z,20.50
2022-12-05T17:46:53.235Z,19.90
2022-12-05T17:49:22.806Z,20.00
2022-12-05T17:52:20.656Z,20.10
2022-12-05T17:54:41.498Z,20.10
2022-12-05T17:57:09.287Z,20.20
2022-12-05T17:59:38.152Z,20.00
2022-12-05T18:02:06.419Z,20.10
2022-12-05T18:04:36.652Z,20.20
2022-12-05T18:07:04.835Z,20.30
2022-12-05T18:09:32.925Z,20.30
2022-12-05T18:12:00.738Z,20.40
2022-12-05T18:14:28.615Z,20.50
2022-12-05T18:16:56.612Z,20.30
2022-12-05T18:19:24.570Z,20.30
2022-12-05T18:21:54.014Z,20.40
2022-12-05T18:24:21.841Z,20.40
2022-12-05T18:26:49.648Z,20.50
2022-12-05T18:29:17.500Z,20.50
2022-12-05T18:31:45.378Z,20.60
2022-12-05T18:34:13.188Z,20.60
2022-12-05T18:36:41.307Z,20.70
2022-12-05T18:39:14.820Z,20.60
2022-12-05T18:41:42.920Z,20.60
2022-12-05T18:44:10.906Z,20.60
2022-12-05T18:46:38.777Z,20.60
2022-12-05T18:49:06.860Z,20.60
2022-12-05T18:51:34.955Z,20.60
2022-12-05T18:54:02.739Z,20.60
2022-12-05T18:56:34.527Z,20.50
2022-12-05T18:59:04.598Z,20.50
2022-12-05T19:01:34.374Z,20.50
2022-12-05T19:04:03.952Z,20.50
2022-12-05T19:06:36.058Z,20.40
2022-12-05T19:09:06.783Z,20.40
2022-12-05T19:11:36.457Z,20.40
2022-12-05T19:14:05.813Z,20.40
2022-12-05T19:16:35.439Z,20.40
2022-12-05T19:19:05.482Z,20.40
2022-12-05T19:21:35.195Z,20.40
2022-12-05T19:24:04.936Z,20.40
2022-12-05T19:26:33.180Z,20.40
2022-12-05T19:29:02.459Z,20.40
2022-12-05T19:31:30.760Z,20.40
2022-12-05T19:34:01.744Z,20.40
2022-12-05T19:36:33.117Z,20.40
2022-12-05T19:39:01.084Z,20.40
2022-12-05T19:41:31.073Z,20.40
2022-12-05T19:44:00.725Z,20.40
2022-12-05T19:46:32.953Z,20.40
2022-12-05T19:49:02.771Z,20.40
2022-12-05T19:51:31.606Z,20.40
2022-12-05T19:54:00.886Z,20.40
2022-12-05T19:56:30.585Z,20.50
2022-12-05T19:58:59.644Z,20.50
2022-12-05T20:01:30.907Z,20.50
2022-12-05T20:04:00.473Z,20.50
2022-12-05T20:06:32.214Z,20.50
2022-12-05T20:09:00.785Z,20.50
2022-12-05T20:11:29.876Z,20.50
2022-12-05T20:13:59.296Z,20.50
2022-12-05T20:16:28.601Z,20.50
2022-12-05T20:18:59.120Z,20.50
2022-12-05T20:21:28.447Z,20.50
2022-12-05T20:23:56.838Z,20.50
2022-12-05T20:26:26.696Z,20.50
2022-12-05T20:28:57.348Z,20.50
2022-12-05T20:31:27.306Z,20.50
2022-12-05T20:33:57.169Z,20.40
2022-12-05T20:36:27.182Z,20.40
2022-12-05T20:38:59.490Z,20.40
2022-12-05T20:41:28.306Z,20.40
2022-12-05T20:43:57.985Z,20.40
2022-12-05T20:46:26.674Z,20.30
2022-12-05T20:48:56.248Z,20.30
2022-12-05T20:51:27.929Z,20.30
2022-12-05T20:53:56.642Z,20.30
2022-12-05T20:56:26.141Z,20.30
2022-12-05T20:58:56.667Z,20.20
2022-12-05T21:01:26.120Z,20.30
2022-12-05T21:03:54.649Z,20.30
2022-12-05T21:06:26.603Z,20.20
2022-12-05T21:08:55.385Z,20.30
2022-12-05T21:11:24.506Z,20.30
2022-12-05T21:13:52.844Z,20.30
2022-12-05T21:16:23.067Z,20.40
2022-12-05T21:18:51.605Z,20.40
2022-12-05T21:21:21.784Z,20.40
2022-12-05T21:23:54.900Z,20.40
2022-12-05T21:26:23.751Z,20.40
2022-12-05T21:28:52.110Z,20.40
2022-12-05T21:31:22.258Z,20.40
2022-12-05T21:33:52.253Z,20.40
2022-12-05T21:36:20.768Z,20.40
2022-12-05T21:38:55.600Z,20.40
2022-12-05T21:41:24.879Z,20.40
2022-12-05T21:43:55.303Z,20.40
2022-12-05T21:46:24.175Z,20.40
2022-12-05T21:48:52.430Z,20.30
2022-12-05T21:51:20.708Z,20.30
2022-12-05T21:53:49.921Z,20.30
2022-12-05T21:56:23.693Z,20.30
2022-12-05T21:58:52.054Z,20.30
2022-12-05T22:01:22.082Z,20.30
2022-12-05T22:03:53.237Z,20.30
2022-12-05T22:06:21.218Z,20.20
2022-12-05T22:08:50.454Z,20.30
2022-12-05T22:11:20.291Z,20.30
2022-12-05T22:13:49.112Z,20.20
2022-12-05T22:16:18.322Z,20.20
2022-12-05T22:18:46.766Z,20.20
2022-12-05T22:21:16.392Z,20.20
2022-12-05T22:23:44.665Z,20.20
2022-12-05T22:26:15.382Z,20.10
2022-12-05T22:28:43.477Z,20.10
2022-12-05T22:31:13.376Z,20.10
2022-12-05T22:33:41.606Z,20.10
2022-12-05T22:36:11.402Z,20.10
2022-12-05T22:38:40.689Z,20.20
2022-12-05T22:41:10.378Z,20.10
2022-12-05T22:43:39.525Z,20.10
2022-12-05T22:46:10.333Z,20.10
2022-12-05T22:48:38.747Z,20.20
2022-12-05T22:51:08.516Z,20.20
2022-12-05T22:53:36.940Z,20.20
2022-12-05T22:56:06.486Z,20.20
2022-12-05T22:58:34.523Z,20.20
2022-12-05T23:01:11.995Z,20.20
2022-12-05T23:03:40.141Z,20.20
2022-12-05T23:06:11.718Z,20.20
2022-12-05T23:08:40.545Z,20.20
2022-12-05T23:11:09.596Z,20.20
2022-12-05T23:13:38.378Z,20.20
2022-12-05T23:16:08.156Z,20.20
2022-12-05T23:18:46.706Z,20.20
2022-12-05T23:21:17.140Z,20.20
2022-12-05T23:23:45.365Z,20.20
2022-12-05T23:26:14.128Z,20.20
2022-12-05T23:28:42.238Z,20.20
2022-12-05T23:31:11.454Z,20.20
2022-12-05T23:33:41.403Z,20.20
2022-12-05T23:36:10.315Z,20.20
2022-12-05T23:38:39.265Z,20.20
2022-12-05T23:41:09.539Z,20.10
2022-12-05T23:43:38.077Z,20.20
2022-12-05T23:46:07.243Z,20.10
2022-12-05T23:48:35.233Z,20.10
2022-12-05T23:51:07.009Z,20.10
2022-12-05T23:53:37.012Z,20.10
2022-12-05T23:56:07.665Z,20.10
2022-12-05T23:58:35.960Z,20.10
